Derry, Louisiana
Current Conditions -  °F | °C
As of 3:35 PM on Friday 19 Dec 2014 (Local Time) from KIER Reporting Station
Drizzle Drizzle  
Wind Chill: 44°   Ceiling: 800
Heat Index: 48°   Visibility: 10mi
Dew Point: 47°   Wind: 8mph
Humidity: 96%   Direction: 70°ENE
Pressure: 30.1"   Gusts: NA
Location:  31.5486°N, 92.8432°W
Report Text: KIER 192135Z AUTO 07007KT 10SM DZ OVC008 09/08 A3010 RMK AO2 T00880082
Loading
Personal Weather Stations






























Interactive Weather Map New forecast layout! Learn more

10-Day Weather Forecast

Advertisements
Track Severe Weather on mobile